Arthur, Arkansas
Current Conditions -  °F | °C
As of 11:53 AM on Friday 24 Oct 2014 (Local Time) from KRUE Reporting Station
Clear Clear  
Wind Chill: 68°   Ceiling: Unl
Heat Index: 68°   Visibility: 8mi
Dew Point: 53°   Wind: 5mph
Humidity: 59%   Direction: 360°N
Pressure: 30.16"   Gusts: NA
Location:  35.2722°N, 92.6766°W
Report Text: KRUE 241653Z AUTO 36004KT 8SM CLR 20/12 A3016 RMK AO2 SLP208 T02000117
Loading
Personal Weather Stations






























Interactive Weather Map New forecast layout! Learn more

10-Day Weather Forecast

Advertisements
Track Severe Weather on mobile